Time;durP1;ratioP1;P1;durP2;ratioP2;P2;SDS_P1;SDS_P2;PMS_P1;PMS_P2;Temp;Humidity;BMP_temperature;BMP_pressure;BME280_temperature;BME280_humidity;BME280_pressure;Samples;Min_cycle;Max_cycle;Signal;HPM_P1;HPM_P2
2021/12/07 00:01:48;;;;;;;4.13;2.60;;;5.20;99.90;;;3.04;100.00;99340.06;5033302;28;20037;-83
2021/12/07 00:04:17;;;;;;;5.28;3.13;;;5.20;99.90;;;3.10;100.00;99354.69;5038305;28;20513;-83
2021/12/07 00:06:44;;;;;;;5.68;2.90;;;5.20;99.90;;;3.08;100.00;99344.09;5039890;28;20049;-83
2021/12/07 00:09:17;;;;;;;3.80;2.40;;;5.20;99.90;;;3.09;100.00;99348.50;5028568;28;20456;-83
2021/12/07 00:11:49;;;;;;;4.57;2.88;;;5.20;99.90;;;3.09;100.00;99350.34;5029783;28;20537;-83
2021/12/07 00:14:24;;;;;;;4.05;2.30;;;5.20;99.90;;;3.05;100.00;99352.53;5028463;28;20148;-83
2021/12/07 00:17:11;;;;;;;4.40;2.35;;;5.30;99.90;;;3.02;100.00;99358.22;5030143;28;20386;-83
2021/12/07 00:19:40;;;;;;;4.05;2.25;;;5.20;99.90;;;3.04;100.00;99355.38;5029956;28;20076;-83
2021/12/07 00:22:12;;;;;;;4.53;2.60;;;5.20;99.90;;;3.10;100.00;99360.94;5029865;28;20095;-83
2021/12/07 00:24:42;;;;;;;4.97;2.70;;;5.30;99.90;;;3.03;100.00;99362.59;5029481;28;20053;-83
2021/12/07 00:27:09;;;;;;;4.82;2.42;;;5.20;99.90;;;2.98;100.00;99356.88;5028783;28;20120;-83
2021/12/07 00:29:39;;;;;;;6.03;2.50;;;5.30;99.90;;;3.01;100.00;99353.84;5037657;28;20468;-83
2021/12/07 00:32:19;;;;;;;5.63;2.70;;;5.20;99.90;;;2.95;100.00;99351.81;5046918;28;20090;-83
2021/12/07 00:35:02;;;;;;;4.38;2.38;;;5.20;99.90;;;2.98;100.00;99354.19;5039202;28;20037;-83
2021/12/07 00:37:36;;;;;;;5.40;2.95;;;5.20;99.90;;;2.90;100.00;99355.00;5031673;28;20071;-83
2021/12/07 00:40:10;;;;;;;5.75;3.03;;;5.20;99.90;;;2.91;100.00;99362.06;5031570;28;20133;-83
2021/12/07 00:42:38;;;;;;;6.57;3.97;;;5.20;99.90;;;2.86;100.00;99366.25;5049043;28;20041;-83
2021/12/07 00:45:16;;;;;;;5.57;3.47;;;5.20;99.90;;;2.84;100.00;99370.94;5043565;28;20040;-83
2021/12/07 00:47:44;;;;;;;5.38;3.58;;;5.20;99.90;;;2.90;100.00;99378.34;5039433;28;20462;-83
2021/12/07 00:50:21;;;;;;;5.35;3.13;;;5.20;99.90;;;2.81;100.00;99374.78;5034320;28;20572;-83
2021/12/07 00:52:48;;;;;;;5.63;3.40;;;5.20;99.90;;;2.75;100.00;99380.81;5038415;28;20515;-83
2021/12/07 00:55:21;;;;;;;5.97;3.60;;;5.10;99.90;;;2.73;100.00;99389.03;5035313;28;20045;-83
2021/12/07 00:57:58;;;;;;;5.65;3.65;;;5.10;99.90;;;2.80;100.00;99385.69;5018231;28;20068;-83
2021/12/07 01:00:30;;;;;;;7.07;4.40;;;5.10;99.90;;;2.68;100.00;99388.66;5018356;28;20056;-83
2021/12/07 01:03:00;;;;;;;7.13;4.28;;;5.10;99.90;;;2.60;100.00;99388.63;5020268;28;20041;-83
2021/12/07 01:05:31;;;;;;;6.53;4.38;;;5.00;99.90;;;2.57;100.00;99391.66;5040269;28;20043;-83
2021/12/07 01:08:12;;;;;;;6.90;4.43;;;5.00;99.90;;;2.55;100.00;99404.38;5045589;28;20131;-83
2021/12/07 01:24:43;;;;;;;9.45;6.28;;;4.90;99.90;;;2.40;100.00;99428.34;5017923;28;20052;-83
2021/12/07 01:27:16;;;;;;;9.38;6.60;;;4.90;99.90;;;2.32;100.00;99436.31;5032202;28;20048;-83
2021/12/07 01:29:47;;;;;;;9.75;6.82;;;4.80;99.90;;;2.27;100.00;99441.34;5036066;28;20594;-83
2021/12/07 01:32:31;;;;;;;9.73;6.43;;;4.80;99.90;;;2.23;100.00;99432.75;5027426;28;20041;-83
2021/12/07 01:40:51;;;;;;;10.50;7.15;;;4.80;99.90;;;2.13;100.00;99453.47;4991767;28;20022;-83
2021/12/07 02:00:09;;;;;;;10.52;6.43;;;4.50;99.90;;;1.82;100.00;99480.72;5029162;28;20053;-83
2021/12/07 02:02:41;;;;;;;11.02;6.88;;;4.40;99.90;;;1.86;100.00;99495.50;5040703;28;20048;-83
2021/12/07 02:05:11;;;;;;;11.60;6.90;;;4.40;99.90;;;1.76;100.00;99489.38;5017622;28;20068;-83
2021/12/07 02:07:39;;;;;;;15.02;7.25;;;4.30;99.90;;;1.78;100.00;99498.13;5036068;28;20072;-83
2021/12/07 02:10:15;;;;;;;11.85;7.22;;;4.30;99.90;;;1.76;100.00;99500.94;5018152;28;20497;-83
2021/12/07 02:12:46;;;;;;;11.48;7.40;;;4.30;99.90;;;1.65;100.00;99506.53;5019120;28;20091;-83
2021/12/07 02:15:18;;;;;;;11.07;7.32;;;4.30;99.90;;;1.66;100.00;99507.41;5016776;28;20127;-83
2021/12/07 02:17:47;;;;;;;9.65;6.50;;;4.20;99.90;;;1.60;100.00;99511.53;5041719;28;20045;-83
2021/12/07 02:20:16;;;;;;;11.70;6.88;;;4.20;99.90;;;1.55;100.00;99513.81;5025386;28;20764;-83
2021/12/07 02:22:45;;;;;;;12.38;7.05;;;4.20;99.90;;;1.56;100.00;99516.34;5026083;28;20424;-83
2021/12/07 02:25:17;;;;;;;11.27;7.40;;;4.20;99.90;;;1.62;100.00;99520.28;5026313;28;20542;-83
2021/12/07 02:27:45;;;;;;;;;;;4.20;99.90;;;1.70;100.00;99522.19;5028744;28;20046;-84
2021/12/07 02:30:16;;;;;;;14.27;8.40;;;4.20;99.90;;;1.66;100.00;99527.00;5028329;28;20016;-83
2021/12/07 02:32:44;;;;;;;14.30;8.70;;;4.20;99.90;;;1.72;100.00;99529.09;5026042;28;20049;-83
2021/12/07 02:35:22;;;;;;;14.98;9.20;;;4.20;99.90;;;1.71;100.00;99537.28;5019773;28;20056;-83
2021/12/07 02:37:54;;;;;;;18.05;9.32;;;4.20;99.90;;;1.71;100.00;99530.09;5034775;28;20500;-83
2021/12/07 02:40:22;;;;;;;17.10;11.73;;;4.20;99.90;;;1.74;100.00;99534.31;5024448;28;20098;-83
2021/12/07 02:42:51;;;;;;;18.90;11.95;;;4.20;99.90;;;1.81;100.00;99539.88;5026302;28;20589;-83
2021/12/07 02:45:21;;;;;;;19.48;11.98;;;4.20;99.90;;;1.85;100.00;99541.28;5026347;28;20507;-83
2021/12/07 02:47:48;;;;;;;23.85;13.70;;;4.20;99.90;;;1.90;100.00;99553.22;5026575;28;20091;-83
2021/12/07 02:50:17;;;;;;;21.10;12.63;;;4.30;99.90;;;1.98;100.00;99565.91;5026606;28;20049;-83
2021/12/07 02:52:45;;;;;;;25.38;13.85;;;4.30;99.90;;;2.02;100.00;99575.34;5027816;28;20047;-83
2021/12/07 02:55:14;;;;;;;26.40;14.45;;;4.30;99.90;;;2.09;100.00;99565.66;5026350;28;20052;-83
2021/12/07 02:57:43;;;;;;;26.60;15.40;;;4.40;99.90;;;2.16;100.00;99568.56;5026568;28;20442;-83
2021/12/07 03:00:19;;;;;;;29.15;15.98;;;4.40;99.90;;;2.21;100.00;99576.16;5026288;28;20056;-83
2021/12/07 03:02:54;;;;;;;33.15;16.00;;;4.40;99.90;;;2.24;100.00;99571.31;5026320;28;20049;-83
2021/12/07 03:05:34;;;;;;;28.42;16.33;;;4.40;99.90;;;2.31;100.00;99580.44;5025843;28;20065;-83
2021/12/07 03:08:23;;;;;;;27.83;16.80;;;4.50;99.90;;;2.39;100.00;99578.84;5036106;28;20128;-82
2021/12/07 03:27:26;;;;;;;30.63;16.70;;;4.70;99.90;;;2.54;100.00;99602.28;5033016;28;20080;-83
2021/12/07 03:29:54;;;;;;;27.20;16.05;;;4.70;99.90;;;2.60;100.00;99603.50;5027865;28;20045;-83
2021/12/07 03:32:22;;;;;;;30.50;16.35;;;4.80;99.90;;;2.60;100.00;99619.63;5023265;28;20452;-83
2021/12/07 03:34:49;;;;;;;29.85;16.42;;;4.80;99.90;;;2.58;100.00;99621.63;5038490;28;20049;-83
2021/12/07 03:37:16;;;;;;;30.83;16.05;;;4.80;99.90;;;2.60;100.00;99619.63;5024698;28;20044;-83
2021/12/07 03:39:45;;;;;;;33.88;15.63;;;4.80;99.90;;;2.66;100.00;99619.00;5027109;28;20056;-83
2021/12/07 03:42:12;;;;;;;28.40;14.77;;;4.80;99.90;;;2.72;100.00;99618.41;5029599;28;20047;-83
2021/12/07 03:44:41;;;;;;;27.05;13.82;;;4.80;99.90;;;2.74;100.00;99632.50;5029207;28;20033;-83
2021/12/07 03:47:09;;;;;;;25.40;14.43;;;4.80;99.90;;;2.77;100.00;99633.19;5029748;28;20053;-83
2021/12/07 03:49:36;;;;;;;25.80;14.35;;;4.90;99.90;;;2.79;100.00;99639.25;5029424;28;20065;-83
2021/12/07 03:52:05;;;;;;;26.27;13.93;;;4.90;99.90;;;2.79;100.00;99637.41;5029234;28;20046;-83
2021/12/07 03:54:33;;;;;;;22.58;13.32;;;4.90;99.90;;;2.85;100.00;99644.00;5028723;28;20045;-83
2021/12/07 03:57:01;;;;;;;27.65;13.90;;;4.90;99.90;;;2.88;100.00;99647.22;5029328;28;20100;-83
2021/12/07 03:59:29;;;;;;;22.90;13.15;;;4.90;99.90;;;2.90;100.00;99655.97;5029139;28;20061;-83
2021/12/07 04:01:57;;;;;;;21.75;12.70;;;5.00;99.90;;;2.92;100.00;99656.66;5029245;28;20089;-83
2021/12/07 04:04:25;;;;;;;23.95;12.45;;;5.00;99.90;;;2.99;100.00;99664.94;5029848;28;20060;-83
2021/12/07 04:06:53;;;;;;;26.08;13.65;;;5.00;99.90;;;2.97;100.00;99666.09;5030115;28;20049;-83
2021/12/07 04:09:20;;;;;;;24.33;12.95;;;5.00;99.90;;;3.02;100.00;99669.16;5023855;28;20045;-83
2021/12/07 04:11:49;;;;;;;22.80;12.50;;;5.00;99.90;;;3.01;100.00;99673.69;5023812;28;20042;-83
2021/12/07 04:14:16;;;;;;;25.90;12.90;;;5.10;99.90;;;3.02;100.00;99679.91;5042442;28;20048;-83
2021/12/07 04:16:43;;;;;;;21.55;12.25;;;5.10;99.90;;;3.06;100.00;99679.44;5024822;28;20041;-83
2021/12/07 04:19:12;;;;;;;27.23;14.25;;;5.10;99.90;;;3.05;100.00;99691.19;5028667;28;20510;-83
2021/12/07 04:21:39;;;;;;;27.20;13.30;;;5.00;99.90;;;3.09;100.00;99695.25;5028631;28;20453;-83
2021/12/07 04:24:07;;;;;;;28.75;14.25;;;5.10;99.90;;;3.08;100.00;99692.72;5027624;28;20493;-83
2021/12/07 04:26:36;;;;;;;30.92;14.95;;;5.10;99.90;;;3.08;100.00;99688.19;5030187;28;20073;-83
2021/12/07 04:29:04;;;;;;;33.40;15.13;;;5.20;99.90;;;3.12;100.00;99692.25;5028595;28;20505;-83
2021/12/07 04:31:31;;;;;;;29.10;14.52;;;5.20;99.90;;;3.18;100.00;99706.94;5028281;28;20052;-83
2021/12/07 04:33:59;;;;;;;34.80;15.93;;;5.20;99.90;;;3.22;100.00;99708.28;5046835;28;20072;-83
2021/12/07 04:36:28;;;;;;;36.20;15.35;;;5.20;99.90;;;3.24;100.00;99706.28;5049782;28;20095;-83
2021/12/07 04:38:55;;;;;;;35.28;16.15;;;5.20;99.90;;;3.22;100.00;99710.13;5049027;28;20055;-84
2021/12/07 04:41:22;;;;;;;35.28;15.70;;;5.30;99.90;;;3.22;100.00;99710.13;5040426;28;20040;-83
2021/12/07 04:43:49;;;;;;;36.42;15.88;;;5.30;99.90;;;3.20;100.00;99712.97;5028306;28;20049;-84
2021/12/07 04:46:23;;;;;;;36.20;14.25;;;5.30;99.90;;;3.21;100.00;99713.81;5029678;28;20103;-83
2021/12/07 04:57:43;;;;;;;30.05;12.35;;;5.30;99.90;;;3.34;100.00;99714.25;5028094;28;20100;-83
2021/12/07 05:00:15;;;;;;;36.10;12.77;;;5.30;99.90;;;3.34;100.00;99730.38;5027887;28;20050;-83
2021/12/07 05:02:45;;;;;;;36.80;12.27;;;5.30;99.90;;;3.31;100.00;99738.75;5029176;28;20107;-83
2021/12/07 05:05:16;;;;;;;30.75;11.57;;;5.40;99.90;;;3.31;100.00;99726.19;5026806;28;20049;-83
2021/12/07 05:07:49;;;;;;;44.05;12.85;;;5.40;99.90;;;3.29;100.00;99727.31;5034001;28;20136;-83
2021/12/07 05:10:27;;;;;;;37.00;11.70;;;5.30;99.90;;;3.30;100.00;99737.09;5036096;28;20180;-83
2021/12/07 05:16:05;;;;;;;32.13;10.68;;;5.40;99.90;;;3.36;100.00;99746.38;5021568;28;20490;-84
2021/12/07 05:18:58;;;;;;;33.92;10.55;;;5.40;99.90;;;3.44;100.00;99749.09;5024733;28;20478;-83
2021/12/07 05:24:17;;;;;;;30.23;11.82;;;5.40;99.90;;;3.52;100.00;99763.47;5030293;28;20056;-83
2021/12/07 05:37:54;;;;;;;34.65;12.50;;;5.50;99.90;;;3.54;100.00;99787.50;5023183;28;20037;-83
2021/12/07 05:40:26;;;;;;;32.03;12.43;;;5.50;99.90;;;3.56;100.00;99787.34;5038879;28;20040;-83
2021/12/07 05:42:54;;;;;;;28.73;12.85;;;5.50;99.90;;;3.58;100.00;99794.28;5019429;28;20045;-83
2021/12/07 05:45:30;;;;;;;35.03;13.30;;;5.50;99.90;;;3.60;100.00;99802.16;5038941;28;20037;-83
2021/12/07 05:47:58;;;;;;;35.13;13.50;;;5.50;99.90;;;3.60;100.00;99807.56;5048529;28;20111;-83
2021/12/07 05:50:28;;;;;;;40.00;13.98;;;5.60;99.90;;;3.60;100.00;99812.94;5048683;28;20095;-83
2021/12/07 05:52:56;;;;;;;37.55;13.57;;;5.60;99.90;;;3.56;100.00;99811.56;5048176;28;20087;-83
2021/12/07 05:55:25;;;;;;;39.13;14.10;;;5.60;99.90;;;3.56;100.00;99811.56;5048043;28;20057;-83
2021/12/07 05:57:54;;;;;;;35.67;14.45;;;5.60;99.90;;;3.63;100.00;99824.22;5030486;28;20060;-83
2021/12/07 06:00:26;;;;;;;35.92;15.18;;;5.60;99.90;;;3.64;100.00;99833.16;5048562;28;20044;-82
2021/12/07 06:02:55;;;;;;;51.00;16.27;;;5.60;99.90;;;3.69;100.00;99825.44;5024578;28;20045;-85
2021/12/07 06:05:24;;;;;;;44.08;16.80;;;5.60;99.90;;;3.70;100.00;99840.59;5039576;28;20079;-85
2021/12/07 06:07:52;;;;;;;42.63;16.77;;;5.60;99.90;;;3.67;100.00;99830.16;5023123;28;20152;-83
2021/12/07 06:10:20;;;;;;;30.95;14.63;;;5.70;99.90;;;3.70;100.00;99836.06;5036306;28;20041;-84
2021/12/07 06:12:49;;;;;;;31.40;14.80;;;5.70;99.90;;;3.69;100.00;99845.16;5027984;28;20038;-83
2021/12/07 06:15:19;;;;;;;36.42;13.55;;;5.70;99.90;;;3.67;100.00;99851.66;5028152;28;20112;-83
2021/12/07 06:17:47;;;;;;;30.92;13.60;;;5.70;99.90;;;3.76;100.00;99858.81;5028437;28;20567;-83
2021/12/07 06:20:15;;;;;;;41.45;14.25;;;5.60;99.90;;;3.78;100.00;99869.41;5028202;28;20045;-83
2021/12/07 06:22:42;;;;;;;35.72;13.30;;;5.60;99.90;;;3.77;100.00;99857.81;5027274;28;20077;-81
2021/12/07 06:25:11;;;;;;;35.58;13.25;;;5.70;99.90;;;3.76;100.00;99861.50;5025921;28;20149;-83
2021/12/07 06:27:40;;;;;;;36.08;13.73;;;5.70;99.90;;;3.71;100.00;99851.22;5028814;28;20055;-83
2021/12/07 06:30:12;;;;;;;33.35;14.13;;;5.70;99.90;;;3.70;100.00;99856.75;5028195;28;20144;-83
2021/12/07 06:32:40;;;;;;;32.28;12.90;;;5.70;99.90;;;3.75;100.00;99853.56;5027614;28;20076;-83
2021/12/07 06:35:09;;;;;;;34.40;12.63;;;5.70;99.90;;;3.77;100.00;99868.59;5010600;28;20087;-83
2021/12/07 06:37:38;;;;;;;32.63;12.52;;;5.70;99.90;;;3.78;100.00;99869.41;5048082;28;20047;-82
2021/12/07 06:40:09;;;;;;;40.13;13.00;;;5.70;99.90;;;3.79;100.00;99877.34;5041488;28;20065;-83
2021/12/07 06:42:38;;;;;;;39.88;12.68;;;5.70;99.90;;;3.69;100.00;99872.06;5029992;28;20048;-83
2021/12/07 06:45:10;;;;;;;30.52;11.23;;;5.70;99.90;;;3.66;100.00;99874.22;5044038;28;20052;-83
2021/12/07 06:47:38;;;;;;;32.28;10.13;;;5.70;99.90;;;3.70;100.00;99862.97;5050939;28;20052;-83
2021/12/07 06:50:09;;;;;;;30.92;9.73;;;5.70;99.90;;;3.71;100.00;99879.94;5051996;28;20051;-83
2021/12/07 06:52:36;;;;;;;34.67;11.20;;;5.70;99.90;;;3.74;100.00;99882.34;5051987;28;20140;-83
2021/12/07 06:55:05;;;;;;;36.55;11.13;;;5.70;99.90;;;3.72;100.00;99892.41;5034910;28;20080;-83
2021/12/07 06:57:33;;;;;;;32.10;10.13;;;5.70;99.90;;;3.75;100.00;99892.13;5013866;28;20048;-83
2021/12/07 07:00:00;;;;;;;34.97;11.48;;;5.70;99.90;;;3.77;100.00;99891.94;5031910;28;20136;-83
2021/12/07 07:02:29;;;;;;;36.78;11.70;;;5.70;99.90;;;3.80;100.00;99899.72;5031563;28;20065;-83
2021/12/07 07:04:56;;;;;;;30.27;12.05;;;5.70;99.90;;;3.74;100.00;99914.63;5041531;28;20392;-83
2021/12/07 07:07:24;;;;;;;26.50;10.52;;;5.70;99.90;;;3.70;100.00;99905.19;5038229;28;20575;-83
2021/12/07 07:09:52;;;;;;;35.35;11.15;;;5.70;99.90;;;3.67;100.00;99902.78;5036276;28;20501;-83
2021/12/07 07:12:20;;;;;;;31.85;10.30;;;5.70;99.90;;;3.67;100.00;99908.19;5040383;28;20506;-83
2021/12/07 07:14:48;;;;;;;30.83;10.10;;;5.70;99.90;;;3.68;100.00;99896.44;5022073;28;20118;-87
2021/12/07 07:17:15;;;;;;;31.02;10.85;;;5.70;99.90;;;3.64;100.00;99911.19;5038555;28;20132;-84
2021/12/07 07:19:45;;;;;;;31.38;10.15;;;5.70;99.90;;;3.59;100.00;99908.94;5043677;28;20074;-84
2021/12/07 07:22:12;;;;;;;33.20;10.13;;;5.70;99.90;;;3.64;100.00;99916.56;5037984;28;20123;-83
2021/12/07 07:24:42;;;;;;;33.47;10.95;;;5.70;99.90;;;3.58;100.00;99909.09;5032499;28;20132;-83
2021/12/07 07:27:10;;;;;;;28.17;11.18;;;5.70;99.90;;;3.47;100.00;99905.66;5032884;28;20048;-84
2021/12/07 07:29:38;;;;;;;27.77;11.35;;;5.70;99.90;;;3.42;100.00;99912.50;5050951;28;20044;-84
2021/12/07 07:32:06;;;;;;;31.52;11.18;;;5.60;99.90;;;3.42;100.00;99920.56;5051004;28;20068;-84
2021/12/07 07:34:34;;;;;;;36.00;12.52;;;5.60;99.90;;;3.35;100.00;99931.09;5039507;28;20107;-84
2021/12/07 07:37:02;;;;;;;27.88;12.85;;;5.60;99.90;;;3.29;100.00;99937.06;5031282;28;20045;-83
2021/12/07 07:39:30;;;;;;;40.55;13.52;;;5.60;99.90;;;3.25;100.00;99923.06;5040257;28;20072;-85
2021/12/07 07:41:57;;;;;;;35.53;14.00;;;5.50;99.90;;;3.12;100.00;99936.91;5041044;28;20075;-83
2021/12/07 07:44:35;;;;;;;38.78;16.30;;;5.50;99.90;;;3.05;100.00;99943.03;5022197;28;20052;-83
2021/12/07 07:47:02;;;;;;;42.10;14.80;;;5.50;99.90;;;3.05;100.00;99938.50;5018378;28;20045;-84
2021/12/07 07:49:29;;;;;;;33.08;13.82;;;5.50;99.90;;;3.00;100.00;99942.63;5030805;28;20148;-84
2021/12/07 07:51:57;;;;;;;40.35;15.20;;;5.40;99.90;;;3.01;100.00;99938.94;5030646;28;20555;-84
2021/12/07 07:54:25;;;;;;;47.00;14.07;;;5.40;99.90;;;3.00;100.00;99932.72;5030724;28;20145;-84
2021/12/07 07:56:53;;;;;;;41.40;13.57;;;5.40;99.90;;;2.96;100.00;99946.63;5048925;28;20099;-84
2021/12/07 07:59:20;;;;;;;41.65;13.52;;;5.40;99.90;;;2.95;100.00;99937.69;5049725;28;20044;-84
2021/12/07 08:01:48;;;;;;;33.35;12.23;;;5.30;99.90;;;2.93;100.00;99939.69;5027106;28;20049;-84
2021/12/07 08:04:15;;;;;;;29.63;12.27;;;5.30;99.90;;;3.05;100.00;99945.72;5037383;28;20049;-84
2021/12/07 08:06:42;;;;;;;30.98;10.85;;;5.30;99.90;;;3.15;100.00;99946.50;5039576;28;20041;-84
2021/12/07 08:09:10;;;;;;;29.38;11.55;;;5.40;99.90;;;3.21;100.00;99942.38;5042605;28;20493;-83
2021/12/07 08:11:38;;;;;;;31.02;11.68;;;5.40;99.90;;;3.25;100.00;99947.28;5039100;28;20132;-84
2021/12/07 08:14:06;;;;;;;32.88;12.18;;;5.40;99.90;;;3.18;100.00;99948.91;5022678;28;20041;-84
2021/12/07 08:16:34;;;;;;;42.35;14.32;;;5.40;99.90;;;3.20;100.00;99951.41;5034411;28;20087;-83
2021/12/07 08:19:02;;;;;;;35.45;14.07;;;5.40;99.90;;;3.15;100.00;99953.72;5029826;28;20049;-83
2021/12/07 08:21:31;;;;;;;39.08;15.20;;;5.40;99.90;;;3.15;100.00;99954.56;5027120;28;20037;-84
2021/12/07 08:23:58;;;;;;;37.83;14.10;;;5.40;99.90;;;3.17;100.00;99954.44;5023143;28;20052;-83
2021/12/07 08:26:25;;;;;;;32.92;13.23;;;5.40;99.90;;;3.17;100.00;99952.56;5041881;28;20036;-84
2021/12/07 08:28:56;;;;;;;36.63;12.55;;;5.50;99.90;;;3.18;100.00;99948.03;5047233;28;20083;-84
2021/12/07 08:31:25;;;;;;;37.75;11.38;;;5.40;99.90;;;3.15;100.00;99949.19;5044304;28;20147;-84
2021/12/07 08:33:52;;;;;;;35.58;12.70;;;5.40;99.90;;;3.19;100.00;99949.75;5038594;28;20132;-84
2021/12/07 08:36:20;;;;;;;32.08;11.88;;;5.40;99.90;;;3.22;100.00;99944.03;5041484;28;20065;-84
2021/12/07 08:38:49;;;;;;;38.88;11.90;;;5.40;99.90;;;3.16;100.00;99944.66;5037302;28;20103;-84
2021/12/07 08:41:16;;;;;;;26.33;12.20;;;5.40;99.90;;;3.17;100.00;99935.59;5035523;28;20045;-86
2021/12/07 08:43:44;;;;;;;32.00;12.20;;;5.40;99.90;;;3.14;100.00;99928.66;5039852;28;20080;-84
2021/12/07 08:46:15;;;;;;;30.25;12.45;;;5.40;99.90;;;3.18;100.00;99926.53;5042558;28;20045;-84
2021/12/07 08:48:43;;;;;;;22.15;10.57;;;5.40;99.90;;;3.21;100.00;99934.31;5035782;28;20041;-84
2021/12/07 08:51:14;;;;;;;35.53;11.48;;;5.40;99.90;;;3.22;100.00;99930.59;5038977;28;20135;-84
2021/12/07 08:53:48;;;;;;;25.53;9.60;;;5.40;99.90;;;3.17;100.00;99930.22;5023007;28;20050;-84
2021/12/07 09:01:47;;;;;;;27.33;9.27;;;5.40;99.90;;;3.21;100.00;99929.75;5021025;28;20052;-84
2021/12/07 09:04:17;;;;;;;30.73;9.25;;;5.40;99.90;;;3.16;100.00;99928.53;5042536;28;20154;-84
2021/12/07 09:06:45;;;;;;;33.35;9.48;;;5.40;99.90;;;3.15;100.00;99932.22;5040191;28;20102;-84
2021/12/07 09:09:13;;;;;;;25.85;8.95;;;5.40;99.90;;;3.06;100.00;99923.22;5034091;28;20041;-84
2021/12/07 09:11:40;;;;;;;24.60;8.85;;;5.40;99.90;;;3.09;100.00;99933.66;5042668;28;20125;-84
2021/12/07 09:14:10;;;;;;;28.85;7.78;;;5.40;99.90;;;3.18;100.00;99938.16;5036957;22;20048;-85
2021/12/07 09:16:38;;;;;;;25.35;8.63;;;5.40;99.90;;;3.13;100.00;99943.97;5036653;28;20075;-84
2021/12/07 09:19:06;;;;;;;28.17;8.48;;;5.40;99.90;;;3.10;100.00;99949.66;5048657;28;20048;-85
2021/12/07 09:21:34;;;;;;;23.85;7.50;;;5.40;99.90;;;3.11;100.00;99959.41;5048638;28;20460;-85
2021/12/07 09:24:02;;;;;;;24.40;8.50;;;5.40;99.90;;;3.11;100.00;99963.94;5061498;28;20040;-85
2021/12/07 09:26:30;;;;;;;26.58;7.68;;;5.40;99.90;;;3.10;100.00;99957.72;5064361;28;20137;-85
2021/12/07 09:28:57;;;;;;;26.05;7.88;;;5.50;99.90;;;3.17;100.00;99963.31;5063332;28;20053;-84
2021/12/07 09:31:25;;;;;;;25.45;6.90;;;5.40;99.90;;;3.16;100.00;99960.78;5049837;28;20041;-85
2021/12/07 09:33:54;;;;;;;24.73;7.10;;;5.40;99.90;;;3.22;100.00;99973.63;5037038;28;20441;-86
2021/12/07 09:36:25;;;;;;;29.08;7.10;;;5.40;99.90;;;3.24;100.00;99971.66;5064780;28;20489;-87
2021/12/07 09:38:53;;;;;;;26.38;7.07;;;5.40;99.90;;;3.23;100.00;99964.56;5060826;28;20049;-86
2021/12/07 09:41:21;;;;;;;24.92;6.90;;;5.40;99.90;;;3.28;100.00;99976.56;5057592;28;20463;-86
2021/12/07 09:43:49;;;;;;;22.00;6.15;;;5.40;99.90;;;3.32;100.00;99977.13;5068042;28;20064;-86
2021/12/07 09:46:17;;;;;;;25.73;6.88;;;5.40;99.90;;;3.34;100.00;99972.44;5064652;28;20037;-86
2021/12/07 09:48:46;;;;;;;25.80;6.63;;;5.40;99.90;;;3.36;100.00;99965.06;5068347;28;20116;-86
2021/12/07 09:51:17;;;;;;;22.55;6.43;;;5.50;99.90;;;3.44;100.00;99980.44;5068594;28;20045;-88
2021/12/07 09:53:47;;;;;;;26.30;7.28;;;5.50;99.90;;;3.45;100.00;99982.97;5068067;28;20048;-84
2021/12/07 09:56:15;;;;;;;22.60;6.20;;;5.50;99.90;;;3.50;100.00;99983.38;5064788;28;20049;-84
2021/12/07 09:58:43;;;;;;;21.98;6.32;;;5.50;99.90;;;3.46;100.00;99981.97;5067999;28;20040;-84
2021/12/07 10:01:12;;;;;;;21.55;6.15;;;5.50;99.90;;;3.47;100.00;99983.66;5055667;28;20098;-84
2021/12/07 10:03:41;;;;;;;25.83;6.38;;;5.50;99.90;;;3.48;100.00;99984.50;5048263;28;20052;-84
2021/12/07 10:06:09;;;;;;;15.13;5.55;;;5.50;99.90;;;3.46;100.00;99981.13;5058403;28;20181;-84
2021/12/07 10:08:37;;;;;;;17.60;5.82;;;5.50;99.90;;;3.45;100.00;99980.28;5048337;28;20130;-84
2021/12/07 10:11:09;;;;;;;21.08;6.50;;;5.60;99.90;;;3.48;100.00;99969.22;5053282;28;20724;-85
2021/12/07 10:13:39;;;;;;;25.05;6.45;;;5.60;99.90;;;3.51;100.00;99976.97;5059657;28;20068;-84
2021/12/07 10:16:10;;;;;;;17.85;5.40;;;5.60;99.90;;;3.58;100.00;99976.38;5046198;28;20086;-84
2021/12/07 10:18:40;;;;;;;21.10;6.15;;;5.60;99.90;;;3.64;100.00;99968.53;5067779;28;20048;-84
2021/12/07 10:21:13;;;;;;;30.98;7.60;;;5.60;99.90;;;3.67;100.00;99964.69;5061193;28;20040;-84
2021/12/07 10:23:43;;;;;;;21.05;5.88;;;5.60;99.90;;;3.68;100.00;99971.78;5053665;28;20053;-84
2021/12/07 10:26:16;;;;;;;16.67;6.00;;;5.70;99.90;;;3.78;100.00;99969.84;5067662;28;20501;-84
2021/12/07 10:28:47;;;;;;;20.55;5.88;;;5.70;99.90;;;3.70;100.00;99965.22;5071572;28;20070;-84
2021/12/07 10:31:32;;;;;;;23.10;5.63;;;5.70;99.90;;;3.73;100.00;99969.44;5071867;28;20048;-84
2021/12/07 10:34:03;;;;;;;22.88;6.00;;;5.70;99.90;;;3.80;100.00;99967.00;5065792;28;20045;-84
2021/12/07 10:36:34;;;;;;;19.75;5.85;;;5.80;99.90;;;3.77;100.00;99949.31;5060168;28;20064;-84
2021/12/07 10:39:10;;;;;;;25.73;5.72;;;5.80;99.90;;;3.81;100.00;99958.78;5071569;28;20048;-84
2021/12/07 10:41:42;;;;;;;19.20;5.75;;;5.80;99.90;;;3.77;100.00;99949.31;5071694;28;20055;-84
2021/12/07 10:44:12;;;;;;;25.20;5.85;;;5.80;99.90;;;3.84;100.00;99953.06;5068654;28;20447;-84
2021/12/07 10:46:52;;;;;;;17.02;5.13;;;5.80;99.90;;;3.83;100.00;99956.78;5063598;28;20558;-84
2021/12/07 10:49:33;;;;;;;20.08;5.60;;;5.80;99.90;;;3.83;100.00;99953.25;5052233;28;20045;-84
2021/12/07 10:52:11;;;;;;;21.40;5.85;;;5.80;99.90;;;3.87;100.00;99939.31;5051611;28;20144;-84
2021/12/07 10:54:44;;;;;;;16.10;5.47;;;5.90;99.90;;;3.91;100.00;99929.91;5050978;28;20041;-85
2021/12/07 10:57:17;;;;;;;19.90;5.25;;;5.90;99.90;;;3.98;100.00;99931.97;5066844;28;20045;-84
2021/12/07 11:00:07;;;;;;;19.70;5.47;;;5.90;99.90;;;3.99;100.00;99921.06;5055780;28;20056;-85
2021/12/07 11:02:37;;;;;;;20.80;5.60;;;5.90;99.90;;;4.00;100.00;99922.75;5051725;28;20635;-84
2021/12/07 11:05:09;;;;;;;19.63;5.82;;;5.90;99.90;;;3.96;100.00;99916.00;5039408;28;20043;-84
2021/12/07 11:07:37;;;;;;;35.60;6.15;;;5.90;99.90;;;3.94;100.00;99919.84;5064138;28;20497;-84
2021/12/07 11:10:14;;;;;;;22.35;5.63;;;5.90;99.90;;;4.02;100.00;99914.53;5064035;28;20044;-84
2021/12/07 11:12:52;;;;;;;24.27;6.15;;;5.90;99.90;;;4.05;100.00;99909.66;5063680;28;20067;-84
2021/12/07 11:15:25;;;;;;;19.95;5.70;;;5.90;99.90;;;4.04;100.00;99917.91;5051964;28;20048;-84
2021/12/07 11:17:57;;;;;;;17.00;5.85;;;5.90;99.90;;;4.14;100.00;99904.34;5065951;28;20041;-84
2021/12/07 11:20:25;;;;;;;25.10;6.35;;;5.90;99.90;;;4.16;100.00;99905.03;5068743;28;20040;-84
2021/12/07 11:22:58;;;;;;;22.05;7.00;;;5.90;99.90;;;4.15;100.00;99893.41;5063158;28;20098;-84
2021/12/07 11:25:54;;;;;;;22.00;5.97;;;6.00;99.90;;;4.13;100.00;99884.63;5060483;28;20512;-84
2021/12/07 11:31:24;;;;;;;22.13;6.38;;;6.00;99.90;;;4.20;100.00;99885.69;5043549;28;20206;-85
2021/12/07 11:34:05;;;;;;;20.23;5.20;;;6.00;99.90;;;4.24;100.00;99881.66;5055765;28;20117;-84
2021/12/07 11:36:35;;;;;;;26.67;6.30;;;6.00;99.90;;;4.30;100.00;99872.97;5053399;28;20048;-84
2021/12/07 11:39:18;;;;;;;27.73;6.13;;;6.00;99.90;;;4.27;100.00;99870.59;5065851;28;20532;-84
2021/12/07 11:41:49;;;;;;;23.25;5.55;;;6.10;99.90;;;4.31;100.00;99871.94;5056257;28;20076;-88
2021/12/07 11:44:22;;;;;;;20.17;5.50;;;6.10;99.90;;;4.31;100.00;99866.56;5032457;28;20164;-87
2021/12/07 11:46:51;;;;;;;17.05;5.53;;;6.10;99.90;;;4.34;100.00;99875.31;5067438;28;20146;-87
2021/12/07 11:49:23;;;;;;;33.65;7.43;;;6.10;99.90;;;4.40;100.00;99863.91;5070287;28;20743;-86
2021/12/07 11:51:53;;;;;;;43.65;9.57;;;6.10;99.90;;;4.44;100.00;99857.22;5070769;28;20076;-86
2021/12/07 11:54:24;;;;;;;26.70;6.80;;;6.10;99.90;;;4.50;100.00;99848.47;5068209;28;20056;-87
2021/12/07 11:56:52;;;;;;;27.10;5.95;;;6.20;99.90;;;4.56;100.00;99847.81;5035341;28;20048;-88
2021/12/07 11:59:21;;;;;;;21.75;5.68;;;6.20;99.90;;;4.58;100.00;99855.75;5058340;28;20554;-87